sensor_id;sensor_type;location;lat;lon;timestamp;P1;durP1;ratioP1;P2;durP2;ratioP2
11305;SDS011;5708;50.660;6.778;2022-08-11T00:00:57;4.78;;;3.00;;
11305;SDS011;5708;50.660;6.778;2022-08-11T00:03:23;4.68;;;2.63;;
11305;SDS011;5708;50.660;6.778;2022-08-11T00:05:54;6.55;;;3.15;;
11305;SDS011;5708;50.660;6.778;2022-08-11T00:08:24;4.75;;;3.20;;
11305;SDS011;5708;50.660;6.778;2022-08-11T00:11:04;4.75;;;2.90;;
11305;SDS011;5708;50.660;6.778;2022-08-11T00:13:36;8.38;;;3.60;;
11305;SDS011;5708;50.660;6.778;2022-08-11T00:16:03;5.20;;;3.10;;
11305;SDS011;5708;50.660;6.778;2022-08-11T00:18:38;6.05;;;3.05;;
11305;SDS011;5708;50.660;6.778;2022-08-11T00:21:07;6.45;;;3.33;;
11305;SDS011;5708;50.660;6.778;2022-08-11T00:23:32;5.70;;;3.45;;
11305;SDS011;5708;50.660;6.778;2022-08-11T00:25:58;7.13;;;3.20;;
11305;SDS011;5708;50.660;6.778;2022-08-11T00:28:24;7.93;;;3.35;;
11305;SDS011;5708;50.660;6.778;2022-08-11T00:30:55;5.22;;;2.95;;
11305;SDS011;5708;50.660;6.778;2022-08-11T00:33:33;8.95;;;3.40;;
11305;SDS011;5708;50.660;6.778;2022-08-11T00:35:58;5.00;;;3.10;;
11305;SDS011;5708;50.660;6.778;2022-08-11T00:38:25;5.47;;;2.80;;
11305;SDS011;5708;50.660;6.778;2022-08-11T00:46:39;5.47;;;3.30;;
11305;SDS011;5708;50.660;6.778;2022-08-11T00:49:22;7.10;;;3.10;;
11305;SDS011;5708;50.660;6.778;2022-08-11T01:01:07;5.15;;;3.42;;
11305;SDS011;5708;50.660;6.778;2022-08-11T01:03:48;5.88;;;3.08;;
11305;SDS011;5708;50.660;6.778;2022-08-11T01:35:08;4.53;;;2.95;;
11305;SDS011;5708;50.660;6.778;2022-08-11T01:44:22;4.60;;;3.00;;
11305;SDS011;5708;50.660;6.778;2022-08-11T01:47:21;6.43;;;2.78;;
11305;SDS011;5708;50.660;6.778;2022-08-11T01:58:32;4.32;;;2.72;;
11305;SDS011;5708;50.660;6.778;2022-08-11T02:03:45;8.23;;;2.90;;
11305;SDS011;5708;50.660;6.778;2022-08-11T02:06:26;4.82;;;3.20;;
11305;SDS011;5708;50.660;6.778;2022-08-11T02:12:19;5.10;;;2.97;;
11305;SDS011;5708;50.660;6.778;2022-08-11T02:18:05;5.82;;;2.90;;
11305;SDS011;5708;50.660;6.778;2022-08-11T02:20:45;5.93;;;2.80;;
11305;SDS011;5708;50.660;6.778;2022-08-11T02:23:38;5.05;;;3.30;;
11305;SDS011;5708;50.660;6.778;2022-08-11T02:31:49;6.85;;;3.03;;
11305;SDS011;5708;50.660;6.778;2022-08-11T02:38:27;6.95;;;3.13;;
11305;SDS011;5708;50.660;6.778;2022-08-11T02:48:50;5.25;;;2.97;;
11305;SDS011;5708;50.660;6.778;2022-08-11T02:51:41;4.28;;;3.03;;
11305;SDS011;5708;50.660;6.778;2022-08-11T02:54:34;6.03;;;3.72;;
11305;SDS011;5708;50.660;6.778;2022-08-11T02:57:12;5.40;;;3.33;;
11305;SDS011;5708;50.660;6.778;2022-08-11T03:10:20;6.18;;;3.13;;
11305;SDS011;5708;50.660;6.778;2022-08-11T03:15:42;6.00;;;3.17;;
11305;SDS011;5708;50.660;6.778;2022-08-11T03:24:24;7.05;;;3.40;;
11305;SDS011;5708;50.660;6.778;2022-08-11T03:32:03;6.57;;;3.40;;
11305;SDS011;5708;50.660;6.778;2022-08-11T03:34:32;6.25;;;3.50;;
11305;SDS011;5708;50.660;6.778;2022-08-11T03:37:18;6.15;;;3.40;;
11305;SDS011;5708;50.660;6.778;2022-08-11T03:40:17;5.68;;;3.33;;
11305;SDS011;5708;50.660;6.778;2022-08-11T03:43:21;6.50;;;2.97;;
11305;SDS011;5708;50.660;6.778;2022-08-11T03:46:07;5.03;;;3.20;;
11305;SDS011;5708;50.660;6.778;2022-08-11T04:25:06;6.50;;;3.65;;
11305;SDS011;5708;50.660;6.778;2022-08-11T04:30:27;5.80;;;3.80;;
11305;SDS011;5708;50.660;6.778;2022-08-11T04:46:40;7.13;;;3.95;;
11305;SDS011;5708;50.660;6.778;2022-08-11T05:10:17;6.53;;;3.70;;
11305;SDS011;5708;50.660;6.778;2022-08-11T05:13:06;5.47;;;3.83;;
11305;SDS011;5708;50.660;6.778;2022-08-11T05:15:54;9.13;;;3.72;;
11305;SDS011;5708;50.660;6.778;2022-08-11T05:18:45;8.15;;;3.58;;
11305;SDS011;5708;50.660;6.778;2022-08-11T05:21:31;6.10;;;3.60;;
11305;SDS011;5708;50.660;6.778;2022-08-11T05:24:21;10.70;;;3.90;;
11305;SDS011;5708;50.660;6.778;2022-08-11T05:27:06;7.30;;;3.40;;
11305;SDS011;5708;50.660;6.778;2022-08-11T05:30:05;6.10;;;3.53;;
11305;SDS011;5708;50.660;6.778;2022-08-11T05:33:34;5.90;;;3.67;;
11305;SDS011;5708;50.660;6.778;2022-08-11T05:38:37;7.80;;;3.30;;
11305;SDS011;5708;50.660;6.778;2022-08-11T05:41:25;7.30;;;4.05;;
11305;SDS011;5708;50.660;6.778;2022-08-11T05:44:16;8.20;;;4.13;;
11305;SDS011;5708;50.660;6.778;2022-08-11T05:47:01;5.47;;;3.35;;
11305;SDS011;5708;50.660;6.778;2022-08-11T05:49:48;9.43;;;4.10;;
11305;SDS011;5708;50.660;6.778;2022-08-11T05:52:32;5.70;;;3.45;;
11305;SDS011;5708;50.660;6.778;2022-08-11T05:55:17;7.93;;;3.60;;
11305;SDS011;5708;50.660;6.778;2022-08-11T05:58:02;5.28;;;3.15;;
11305;SDS011;5708;50.660;6.778;2022-08-11T06:00:29;6.63;;;3.60;;
11305;SDS011;5708;50.660;6.778;2022-08-11T06:02:56;7.00;;;3.15;;
11305;SDS011;5708;50.660;6.778;2022-08-11T06:05:23;6.80;;;3.53;;
11305;SDS011;5708;50.660;6.778;2022-08-11T06:07:49;8.35;;;3.85;;
11305;SDS011;5708;50.660;6.778;2022-08-11T06:10:36;11.57;;;3.83;;
11305;SDS011;5708;50.660;6.778;2022-08-11T06:13:04;10.63;;;3.40;;
11305;SDS011;5708;50.660;6.778;2022-08-11T06:15:32;5.85;;;3.65;;
11305;SDS011;5708;50.660;6.778;2022-08-11T06:18:01;6.47;;;3.15;;
11305;SDS011;5708;50.660;6.778;2022-08-11T06:20:27;8.02;;;3.38;;
11305;SDS011;5708;50.660;6.778;2022-08-11T06:23:01;10.13;;;3.20;;
11305;SDS011;5708;50.660;6.778;2022-08-11T06:25:32;11.20;;;3.55;;
11305;SDS011;5708;50.660;6.778;2022-08-11T06:27:59;5.38;;;3.00;;
11305;SDS011;5708;50.660;6.778;2022-08-11T06:30:34;9.45;;;3.38;;
11305;SDS011;5708;50.660;6.778;2022-08-11T06:33:52;8.70;;;3.10;;
11305;SDS011;5708;50.660;6.778;2022-08-11T06:36:03;6.65;;;3.15;;
11305;SDS011;5708;50.660;6.778;2022-08-11T06:41:12;9.95;;;3.15;;
11305;SDS011;5708;50.660;6.778;2022-08-11T06:46:30;6.07;;;3.00;;
11305;SDS011;5708;50.660;6.778;2022-08-11T06:48:59;9.90;;;3.05;;
11305;SDS011;5708;50.660;6.778;2022-08-11T06:51:27;7.40;;;3.30;;
11305;SDS011;5708;50.660;6.778;2022-08-11T06:53:53;7.68;;;3.60;;
11305;SDS011;5708;50.660;6.778;2022-08-11T06:56:30;9.98;;;3.45;;
11305;SDS011;5708;50.660;6.778;2022-08-11T06:59:17;9.48;;;3.38;;
11305;SDS011;5708;50.660;6.778;2022-08-11T07:02:19;9.60;;;3.40;;
11305;SDS011;5708;50.660;6.778;2022-08-11T07:04:55;6.28;;;3.28;;
11305;SDS011;5708;50.660;6.778;2022-08-11T07:10:46;11.65;;;3.25;;
11305;SDS011;5708;50.660;6.778;2022-08-11T07:13:42;9.52;;;3.70;;
11305;SDS011;5708;50.660;6.778;2022-08-11T07:16:28;14.65;;;3.60;;
11305;SDS011;5708;50.660;6.778;2022-08-11T07:19:02;11.05;;;3.28;;
11305;SDS011;5708;50.660;6.778;2022-08-11T07:21:49;14.23;;;3.42;;
11305;SDS011;5708;50.660;6.778;2022-08-11T07:24:46;13.10;;;3.92;;
11305;SDS011;5708;50.660;6.778;2022-08-11T07:27:41;10.35;;;3.70;;
11305;SDS011;5708;50.660;6.778;2022-08-11T07:30:26;14.10;;;3.53;;
11305;SDS011;5708;50.660;6.778;2022-08-11T07:32:53;11.75;;;2.80;;
11305;SDS011;5708;50.660;6.778;2022-08-11T07:35:27;6.50;;;3.25;;
11305;SDS011;5708;50.660;6.778;2022-08-11T07:37:57;9.57;;;3.15;;
11305;SDS011;5708;50.660;6.778;2022-08-11T07:40:25;10.07;;;3.33;;
11305;SDS011;5708;50.660;6.778;2022-08-11T07:42:51;8.02;;;3.00;;
11305;SDS011;5708;50.660;6.778;2022-08-11T07:45:17;10.45;;;3.22;;
11305;SDS011;5708;50.660;6.778;2022-08-11T07:48:01;8.02;;;3.00;;
11305;SDS011;5708;50.660;6.778;2022-08-11T07:50:44;10.70;;;3.55;;
11305;SDS011;5708;50.660;6.778;2022-08-11T07:53:29;7.78;;;3.30;;
11305;SDS011;5708;50.660;6.778;2022-08-11T07:55:56;13.77;;;3.00;;
11305;SDS011;5708;50.660;6.778;2022-08-11T07:58:23;7.38;;;3.05;;
11305;SDS011;5708;50.660;6.778;2022-08-11T08:01:08;17.23;;;3.25;;
11305;SDS011;5708;50.660;6.778;2022-08-11T08:03:54;9.27;;;3.33;;
11305;SDS011;5708;50.660;6.778;2022-08-11T08:06:37;14.38;;;3.28;;
11305;SDS011;5708;50.660;6.778;2022-08-11T08:09:22;9.38;;;2.90;;
11305;SDS011;5708;50.660;6.778;2022-08-11T08:12:07;8.00;;;2.92;;
11305;SDS011;5708;50.660;6.778;2022-08-11T08:14:51;7.78;;;2.65;;
11305;SDS011;5708;50.660;6.778;2022-08-11T08:17:37;12.65;;;2.80;;
11305;SDS011;5708;50.660;6.778;2022-08-11T08:20:17;8.20;;;2.85;;
11305;SDS011;5708;50.660;6.778;2022-08-11T08:22:47;7.38;;;2.90;;
11305;SDS011;5708;50.660;6.778;2022-08-11T08:25:16;6.35;;;2.20;;
11305;SDS011;5708;50.660;6.778;2022-08-11T08:27:42;6.75;;;2.60;;
11305;SDS011;5708;50.660;6.778;2022-08-11T08:30:09;6.25;;;2.60;;
11305;SDS011;5708;50.660;6.778;2022-08-11T08:32:55;7.60;;;2.47;;
11305;SDS011;5708;50.660;6.778;2022-08-11T08:35:23;6.75;;;2.65;;
11305;SDS011;5708;50.660;6.778;2022-08-11T08:37:49;8.60;;;2.47;;
11305;SDS011;5708;50.660;6.778;2022-08-11T08:40:15;6.63;;;2.75;;
11305;SDS011;5708;50.660;6.778;2022-08-11T08:42:44;6.80;;;2.75;;
11305;SDS011;5708;50.660;6.778;2022-08-11T08:45:15;9.52;;;2.40;;
11305;SDS011;5708;50.660;6.778;2022-08-11T08:47:44;7.07;;;2.53;;
11305;SDS011;5708;50.660;6.778;2022-08-11T08:50:15;7.45;;;2.70;;
11305;SDS011;5708;50.660;6.778;2022-08-11T08:52:49;12.35;;;2.95;;
11305;SDS011;5708;50.660;6.778;2022-08-11T08:55:18;5.53;;;2.60;;
11305;SDS011;5708;50.660;6.778;2022-08-11T08:57:44;7.47;;;2.67;;
11305;SDS011;5708;50.660;6.778;2022-08-11T09:00:10;4.65;;;2.47;;
11305;SDS011;5708;50.660;6.778;2022-08-11T09:02:38;7.97;;;2.80;;
11305;SDS011;5708;50.660;6.778;2022-08-11T09:05:04;8.93;;;2.65;;
11305;SDS011;5708;50.660;6.778;2022-08-11T09:07:31;7.05;;;2.65;;
11305;SDS011;5708;50.660;6.778;2022-08-11T09:09:58;6.40;;;2.45;;
11305;SDS011;5708;50.660;6.778;2022-08-11T09:12:27;10.57;;;2.75;;
11305;SDS011;5708;50.660;6.778;2022-08-11T09:14:54;10.77;;;2.50;;
11305;SDS011;5708;50.660;6.778;2022-08-11T09:17:32;7.07;;;2.60;;
11305;SDS011;5708;50.660;6.778;2022-08-11T09:20:07;4.07;;;2.30;;
11305;SDS011;5708;50.660;6.778;2022-08-11T09:22:42;6.43;;;2.38;;
11305;SDS011;5708;50.660;6.778;2022-08-11T09:25:27;5.03;;;2.40;;
11305;SDS011;5708;50.660;6.778;2022-08-11T09:28:14;9.00;;;2.45;;
11305;SDS011;5708;50.660;6.778;2022-08-11T09:30:43;5.60;;;2.30;;
11305;SDS011;5708;50.660;6.778;2022-08-11T09:33:10;8.63;;;2.35;;
11305;SDS011;5708;50.660;6.778;2022-08-11T09:35:40;3.63;;;2.15;;
11305;SDS011;5708;50.660;6.778;2022-08-11T09:38:08;6.45;;;2.58;;
11305;SDS011;5708;50.660;6.778;2022-08-11T09:40:54;6.53;;;2.35;;
11305;SDS011;5708;50.660;6.778;2022-08-11T09:43:19;5.03;;;2.38;;
11305;SDS011;5708;50.660;6.778;2022-08-11T09:46:04;8.60;;;2.50;;
11305;SDS011;5708;50.660;6.778;2022-08-11T09:48:30;8.50;;;2.33;;
11305;SDS011;5708;50.660;6.778;2022-08-11T09:51:00;7.72;;;2.03;;
11305;SDS011;5708;50.660;6.778;2022-08-11T09:53:27;6.70;;;2.28;;
11305;SDS011;5708;50.660;6.778;2022-08-11T09:55:56;5.40;;;2.40;;
11305;SDS011;5708;50.660;6.778;2022-08-11T09:58:21;6.88;;;2.30;;
11305;SDS011;5708;50.660;6.778;2022-08-11T10:00:48;5.63;;;2.38;;
11305;SDS011;5708;50.660;6.778;2022-08-11T10:03:15;7.40;;;2.10;;
11305;SDS011;5708;50.660;6.778;2022-08-11T10:05:43;5.20;;;2.40;;
11305;SDS011;5708;50.660;6.778;2022-08-11T10:08:29;6.55;;;2.08;;
11305;SDS011;5708;50.660;6.778;2022-08-11T10:10:55;4.97;;;2.40;;
11305;SDS011;5708;50.660;6.778;2022-08-11T10:13:21;8.43;;;2.40;;
11305;SDS011;5708;50.660;6.778;2022-08-11T10:15:53;6.13;;;2.45;;
11305;SDS011;5708;50.660;6.778;2022-08-11T10:18:23;6.75;;;2.28;;
11305;SDS011;5708;50.660;6.778;2022-08-11T10:23:52;4.05;;;2.38;;
11305;SDS011;5708;50.660;6.778;2022-08-11T10:26:38;4.88;;;2.30;;
11305;SDS011;5708;50.660;6.778;2022-08-11T10:29:30;16.35;;;2.67;;
11305;SDS011;5708;50.660;6.778;2022-08-11T10:32:18;7.40;;;2.60;;
11305;SDS011;5708;50.660;6.778;2022-08-11T10:35:06;9.35;;;2.50;;
11305;SDS011;5708;50.660;6.778;2022-08-11T10:37:33;4.35;;;2.53;;
11305;SDS011;5708;50.660;6.778;2022-08-11T10:40:01;3.97;;;2.35;;
11305;SDS011;5708;50.660;6.778;2022-08-11T10:42:29;4.80;;;2.38;;
11305;SDS011;5708;50.660;6.778;2022-08-11T10:45:13;6.38;;;2.50;;
11305;SDS011;5708;50.660;6.778;2022-08-11T10:47:58;6.22;;;2.63;;
11305;SDS011;5708;50.660;6.778;2022-08-11T10:50:23;6.13;;;2.50;;
11305;SDS011;5708;50.660;6.778;2022-08-11T10:53:07;4.43;;;2.40;;
11305;SDS011;5708;50.660;6.778;2022-08-11T10:55:51;4.70;;;2.40;;
11305;SDS011;5708;50.660;6.778;2022-08-11T10:58:36;4.30;;;2.45;;
11305;SDS011;5708;50.660;6.778;2022-08-11T11:01:15;4.72;;;2.13;;
11305;SDS011;5708;50.660;6.778;2022-08-11T11:03:42;4.32;;;2.33;;
11305;SDS011;5708;50.660;6.778;2022-08-11T11:06:20;5.80;;;2.40;;
11305;SDS011;5708;50.660;6.778;2022-08-11T11:09:00;5.03;;;2.60;;
11305;SDS011;5708;50.660;6.778;2022-08-11T11:11:32;7.32;;;2.53;;
11305;SDS011;5708;50.660;6.778;2022-08-11T11:14:19;3.78;;;2.20;;
11305;SDS011;5708;50.660;6.778;2022-08-11T11:17:05;3.90;;;2.40;;
11305;SDS011;5708;50.660;6.778;2022-08-11T11:19:33;4.55;;;2.30;;
11305;SDS011;5708;50.660;6.778;2022-08-11T11:22:02;6.55;;;2.53;;
11305;SDS011;5708;50.660;6.778;2022-08-11T11:24:58;9.20;;;2.50;;
11305;SDS011;5708;50.660;6.778;2022-08-11T11:27:33;4.80;;;2.30;;
11305;SDS011;5708;50.660;6.778;2022-08-11T11:30:05;8.23;;;2.70;;
11305;SDS011;5708;50.660;6.778;2022-08-11T11:32:58;6.60;;;2.63;;
11305;SDS011;5708;50.660;6.778;2022-08-11T11:38:13;4.32;;;2.20;;
11305;SDS011;5708;50.660;6.778;2022-08-11T11:40:39;6.80;;;2.38;;
11305;SDS011;5708;50.660;6.778;2022-08-11T11:43:05;3.70;;;2.40;;
11305;SDS011;5708;50.660;6.778;2022-08-11T11:45:30;10.48;;;2.30;;
11305;SDS011;5708;50.660;6.778;2022-08-11T11:47:57;7.20;;;2.50;;
11305;SDS011;5708;50.660;6.778;2022-08-11T11:50:24;4.78;;;2.28;;
11305;SDS011;5708;50.660;6.778;2022-08-11T11:52:52;7.88;;;2.80;;
11305;SDS011;5708;50.660;6.778;2022-08-11T11:55:19;4.88;;;2.30;;
11305;SDS011;5708;50.660;6.778;2022-08-11T11:57:46;6.88;;;2.63;;
11305;SDS011;5708;50.660;6.778;2022-08-11T12:00:30;4.22;;;2.03;;
11305;SDS011;5708;50.660;6.778;2022-08-11T12:03:14;8.88;;;2.72;;
11305;SDS011;5708;50.660;6.778;2022-08-11T12:05:39;6.00;;;2.28;;
11305;SDS011;5708;50.660;6.778;2022-08-11T12:08:06;7.63;;;2.60;;
11305;SDS011;5708;50.660;6.778;2022-08-11T12:10:39;5.53;;;2.53;;
11305;SDS011;5708;50.660;6.778;2022-08-11T12:13:12;6.10;;;2.50;;
11305;SDS011;5708;50.660;6.778;2022-08-11T12:15:56;5.88;;;2.22;;
11305;SDS011;5708;50.660;6.778;2022-08-11T12:18:27;3.33;;;2.22;;
11305;SDS011;5708;50.660;6.778;2022-08-11T12:20:53;3.42;;;2.25;;
11305;SDS011;5708;50.660;6.778;2022-08-11T12:23:18;4.80;;;2.17;;
11305;SDS011;5708;50.660;6.778;2022-08-11T12:26:02;6.15;;;2.53;;
11305;SDS011;5708;50.660;6.778;2022-08-11T12:28:46;6.30;;;2.78;;
11305;SDS011;5708;50.660;6.778;2022-08-11T12:31:12;5.13;;;2.13;;
11305;SDS011;5708;50.660;6.778;2022-08-11T12:33:38;5.15;;;2.38;;
11305;SDS011;5708;50.660;6.778;2022-08-11T12:36:05;4.35;;;2.45;;
11305;SDS011;5708;50.660;6.778;2022-08-11T12:38:32;5.78;;;2.42;;
11305;SDS011;5708;50.660;6.778;2022-08-11T12:40:59;9.70;;;2.40;;
11305;SDS011;5708;50.660;6.778;2022-08-11T12:43:44;7.72;;;2.45;;
11305;SDS011;5708;50.660;6.778;2022-08-11T12:46:30;4.88;;;2.25;;
11305;SDS011;5708;50.660;6.778;2022-08-11T12:48:58;6.40;;;2.40;;
11305;SDS011;5708;50.660;6.778;2022-08-11T12:51:45;6.38;;;2.47;;
11305;SDS011;5708;50.660;6.778;2022-08-11T12:54:27;6.38;;;2.50;;
11305;SDS011;5708;50.660;6.778;2022-08-11T12:57:00;6.05;;;2.50;;
11305;SDS011;5708;50.660;6.778;2022-08-11T12:59:46;5.20;;;2.20;;
11305;SDS011;5708;50.660;6.778;2022-08-11T13:02:30;4.70;;;2.40;;
11305;SDS011;5708;50.660;6.778;2022-08-11T13:05:15;5.45;;;2.60;;
11305;SDS011;5708;50.660;6.778;2022-08-11T13:07:42;7.25;;;2.50;;
11305;SDS011;5708;50.660;6.778;2022-08-11T13:10:08;4.43;;;2.20;;
11305;SDS011;5708;50.660;6.778;2022-08-11T13:12:43;6.30;;;2.50;;
11305;SDS011;5708;50.660;6.778;2022-08-11T13:15:13;5.47;;;2.00;;
11305;SDS011;5708;50.660;6.778;2022-08-11T13:17:39;6.93;;;2.40;;
11305;SDS011;5708;50.660;6.778;2022-08-11T13:20:06;6.38;;;2.50;;
11305;SDS011;5708;50.660;6.778;2022-08-11T13:22:34;5.90;;;2.40;;
11305;SDS011;5708;50.660;6.778;2022-08-11T13:25:02;4.45;;;2.40;;
11305;SDS011;5708;50.660;6.778;2022-08-11T13:27:28;6.20;;;2.55;;
11305;SDS011;5708;50.660;6.778;2022-08-11T13:29:54;5.03;;;2.30;;
11305;SDS011;5708;50.660;6.778;2022-08-11T13:32:39;3.15;;;2.00;;
11305;SDS011;5708;50.660;6.778;2022-08-11T13:35:06;7.57;;;2.50;;
11305;SDS011;5708;50.660;6.778;2022-08-11T13:37:32;4.68;;;2.00;;
11305;SDS011;5708;50.660;6.778;2022-08-11T13:39:59;5.40;;;2.45;;
11305;SDS011;5708;50.660;6.778;2022-08-11T13:42:25;4.28;;;2.00;;
11305;SDS011;5708;50.660;6.778;2022-08-11T13:44:51;7.20;;;2.80;;
11305;SDS011;5708;50.660;6.778;2022-08-11T13:47:17;5.85;;;2.10;;
11305;SDS011;5708;50.660;6.778;2022-08-11T13:49:46;7.85;;;2.30;;
11305;SDS011;5708;50.660;6.778;2022-08-11T13:52:12;5.10;;;2.33;;
11305;SDS011;5708;50.660;6.778;2022-08-11T13:54:39;4.95;;;2.13;;
11305;SDS011;5708;50.660;6.778;2022-08-11T13:57:06;4.65;;;2.50;;
11305;SDS011;5708;50.660;6.778;2022-08-11T13:59:33;5.82;;;2.10;;
11305;SDS011;5708;50.660;6.778;2022-08-11T14:02:00;5.05;;;2.50;;
11305;SDS011;5708;50.660;6.778;2022-08-11T14:04:31;9.63;;;2.70;;
11305;SDS011;5708;50.660;6.778;2022-08-11T14:07:02;6.90;;;2.47;;
11305;SDS011;5708;50.660;6.778;2022-08-11T14:09:31;5.72;;;2.47;;
11305;SDS011;5708;50.660;6.778;2022-08-11T14:12:02;5.63;;;2.53;;
11305;SDS011;5708;50.660;6.778;2022-08-11T14:14:58;4.38;;;2.50;;
11305;SDS011;5708;50.660;6.778;2022-08-11T14:17:27;3.88;;;2.40;;
11305;SDS011;5708;50.660;6.778;2022-08-11T14:19:54;6.47;;;2.53;;
11305;SDS011;5708;50.660;6.778;2022-08-11T14:22:19;7.03;;;2.72;;
11305;SDS011;5708;50.660;6.778;2022-08-11T14:24:46;5.70;;;2.25;;
11305;SDS011;5708;50.660;6.778;2022-08-11T14:27:13;4.90;;;2.33;;
11305;SDS011;5708;50.660;6.778;2022-08-11T14:29:40;6.60;;;2.72;;
11305;SDS011;5708;50.660;6.778;2022-08-11T14:32:06;4.75;;;2.28;;
11305;SDS011;5708;50.660;6.778;2022-08-11T14:34:33;4.22;;;2.47;;
11305;SDS011;5708;50.660;6.778;2022-08-11T14:37:11;4.18;;;2.35;;
11305;SDS011;5708;50.660;6.778;2022-08-11T14:39:39;5.07;;;2.33;;
11305;SDS011;5708;50.660;6.778;2022-08-11T14:42:10;5.15;;;2.40;;
11305;SDS011;5708;50.660;6.778;2022-08-11T14:44:57;4.97;;;2.45;;
11305;SDS011;5708;50.660;6.778;2022-08-11T14:47:44;7.45;;;2.90;;
11305;SDS011;5708;50.660;6.778;2022-08-11T14:50:22;3.97;;;2.08;;
11305;SDS011;5708;50.660;6.778;2022-08-11T14:52:50;4.40;;;2.35;;
11305;SDS011;5708;50.660;6.778;2022-08-11T14:55:19;4.85;;;2.50;;
11305;SDS011;5708;50.660;6.778;2022-08-11T14:58:03;4.05;;;2.25;;
11305;SDS011;5708;50.660;6.778;2022-08-11T15:00:29;4.82;;;2.38;;
11305;SDS011;5708;50.660;6.778;2022-08-11T15:02:55;5.03;;;2.38;;
11305;SDS011;5708;50.660;6.778;2022-08-11T15:05:52;3.75;;;2.38;;
11305;SDS011;5708;50.660;6.778;2022-08-11T15:08:20;3.60;;;2.33;;
11305;SDS011;5708;50.660;6.778;2022-08-11T15:11:07;7.35;;;2.75;;
11305;SDS011;5708;50.660;6.778;2022-08-11T15:13:54;4.28;;;2.47;;
11305;SDS011;5708;50.660;6.778;2022-08-11T15:16:20;3.67;;;2.53;;
11305;SDS011;5708;50.660;6.778;2022-08-11T15:19:04;8.05;;;2.40;;
11305;SDS011;5708;50.660;6.778;2022-08-11T15:21:30;5.97;;;2.35;;
11305;SDS011;5708;50.660;6.778;2022-08-11T15:24:14;5.07;;;2.35;;
11305;SDS011;5708;50.660;6.778;2022-08-11T15:26:45;6.88;;;2.60;;
11305;SDS011;5708;50.660;6.778;2022-08-11T15:29:30;5.70;;;2.30;;
11305;SDS011;5708;50.660;6.778;2022-08-11T15:32:15;5.68;;;2.30;;
11305;SDS011;5708;50.660;6.778;2022-08-11T15:35:00;4.07;;;1.90;;
11305;SDS011;5708;50.660;6.778;2022-08-11T15:37:44;5.63;;;2.33;;
11305;SDS011;5708;50.660;6.778;2022-08-11T15:40:14;6.70;;;2.60;;
11305;SDS011;5708;50.660;6.778;2022-08-11T15:43:03;7.28;;;2.10;;
11305;SDS011;5708;50.660;6.778;2022-08-11T15:45:52;7.63;;;2.40;;
11305;SDS011;5708;50.660;6.778;2022-08-11T15:48:34;4.35;;;2.30;;
11305;SDS011;5708;50.660;6.778;2022-08-11T15:51:28;6.72;;;2.28;;
11305;SDS011;5708;50.660;6.778;2022-08-11T15:53:57;5.35;;;2.30;;
11305;SDS011;5708;50.660;6.778;2022-08-11T15:56:27;5.60;;;2.47;;
11305;SDS011;5708;50.660;6.778;2022-08-11T15:58:53;4.60;;;2.47;;
11305;SDS011;5708;50.660;6.778;2022-08-11T16:01:41;3.63;;;2.35;;
11305;SDS011;5708;50.660;6.778;2022-08-11T16:04:26;4.72;;;2.35;;
11305;SDS011;5708;50.660;6.778;2022-08-11T16:07:14;6.13;;;2.58;;
11305;SDS011;5708;50.660;6.778;2022-08-11T16:09:54;5.97;;;2.47;;
11305;SDS011;5708;50.660;6.778;2022-08-11T16:12:24;4.45;;;2.10;;
11305;SDS011;5708;50.660;6.778;2022-08-11T16:14:53;4.30;;;2.20;;
11305;SDS011;5708;50.660;6.778;2022-08-11T16:17:40;4.55;;;2.40;;
11305;SDS011;5708;50.660;6.778;2022-08-11T16:20:08;4.13;;;2.25;;
11305;SDS011;5708;50.660;6.778;2022-08-11T16:22:34;4.93;;;2.20;;
11305;SDS011;5708;50.660;6.778;2022-08-11T16:25:09;6.00;;;2.28;;
11305;SDS011;5708;50.660;6.778;2022-08-11T16:27:37;5.93;;;2.35;;
11305;SDS011;5708;50.660;6.778;2022-08-11T16:30:07;5.45;;;2.38;;
11305;SDS011;5708;50.660;6.778;2022-08-11T16:32:34;4.63;;;2.60;;
11305;SDS011;5708;50.660;6.778;2022-08-11T16:35:05;5.25;;;2.13;;
11305;SDS011;5708;50.660;6.778;2022-08-11T16:37:51;4.97;;;2.65;;
11305;SDS011;5708;50.660;6.778;2022-08-11T16:40:36;4.20;;;2.42;;
11305;SDS011;5708;50.660;6.778;2022-08-11T16:43:04;6.93;;;2.72;;
11305;SDS011;5708;50.660;6.778;2022-08-11T16:45:49;6.85;;;2.42;;
11305;SDS011;5708;50.660;6.778;2022-08-11T16:48:35;5.45;;;2.50;;
11305;SDS011;5708;50.660;6.778;2022-08-11T16:51:01;6.32;;;2.35;;
11305;SDS011;5708;50.660;6.778;2022-08-11T16:53:27;7.68;;;2.60;;
11305;SDS011;5708;50.660;6.778;2022-08-11T16:55:52;6.22;;;2.22;;
11305;SDS011;5708;50.660;6.778;2022-08-11T16:58:19;4.57;;;2.40;;
11305;SDS011;5708;50.660;6.778;2022-08-11T17:01:04;7.85;;;2.78;;
11305;SDS011;5708;50.660;6.778;2022-08-11T17:03:32;5.75;;;2.85;;
11305;SDS011;5708;50.660;6.778;2022-08-11T17:06:16;5.28;;;2.60;;
11305;SDS011;5708;50.660;6.778;2022-08-11T17:09:02;3.47;;;2.45;;
11305;SDS011;5708;50.660;6.778;2022-08-11T17:11:49;9.07;;;2.60;;
11305;SDS011;5708;50.660;6.778;2022-08-11T17:17:06;5.05;;;2.60;;
11305;SDS011;5708;50.660;6.778;2022-08-11T17:19:36;6.10;;;2.53;;
11305;SDS011;5708;50.660;6.778;2022-08-11T17:22:06;6.10;;;2.40;;
11305;SDS011;5708;50.660;6.778;2022-08-11T17:24:50;3.92;;;2.38;;
11305;SDS011;5708;50.660;6.778;2022-08-11T17:27:17;4.72;;;2.30;;
11305;SDS011;5708;50.660;6.778;2022-08-11T17:29:48;5.55;;;2.50;;
11305;SDS011;5708;50.660;6.778;2022-08-11T17:32:18;5.85;;;2.40;;
11305;SDS011;5708;50.660;6.778;2022-08-11T17:35:10;9.75;;;2.67;;
11305;SDS011;5708;50.660;6.778;2022-08-11T17:40:28;6.43;;;2.60;;
11305;SDS011;5708;50.660;6.778;2022-08-11T17:42:55;4.47;;;2.30;;
11305;SDS011;5708;50.660;6.778;2022-08-11T17:45:40;5.80;;;2.28;;
11305;SDS011;5708;50.660;6.778;2022-08-11T17:48:26;3.75;;;2.10;;
11305;SDS011;5708;50.660;6.778;2022-08-11T17:51:13;6.05;;;2.58;;
11305;SDS011;5708;50.660;6.778;2022-08-11T17:54:01;4.60;;;2.20;;
11305;SDS011;5708;50.660;6.778;2022-08-11T17:56:45;7.78;;;2.80;;
11305;SDS011;5708;50.660;6.778;2022-08-11T17:59:30;3.50;;;2.40;;
11305;SDS011;5708;50.660;6.778;2022-08-11T18:02:16;4.72;;;2.42;;
11305;SDS011;5708;50.660;6.778;2022-08-11T18:05:02;9.45;;;2.88;;
11305;SDS011;5708;50.660;6.778;2022-08-11T18:07:29;9.60;;;2.75;;
11305;SDS011;5708;50.660;6.778;2022-08-11T18:10:13;7.20;;;2.90;;
11305;SDS011;5708;50.660;6.778;2022-08-11T18:12:57;5.93;;;2.22;;
11305;SDS011;5708;50.660;6.778;2022-08-11T18:15:42;4.70;;;2.65;;
11305;SDS011;5708;50.660;6.778;2022-08-11T18:18:27;6.85;;;2.97;;
11305;SDS011;5708;50.660;6.778;2022-08-11T18:21:14;6.72;;;2.83;;
11305;SDS011;5708;50.660;6.778;2022-08-11T18:24:01;7.35;;;2.72;;
11305;SDS011;5708;50.660;6.778;2022-08-11T18:26:48;10.30;;;2.92;;
11305;SDS011;5708;50.660;6.778;2022-08-11T18:29:33;7.10;;;2.70;;
11305;SDS011;5708;50.660;6.778;2022-08-11T18:32:18;4.85;;;2.45;;
11305;SDS011;5708;50.660;6.778;2022-08-11T18:35:04;5.65;;;2.83;;
11305;SDS011;5708;50.660;6.778;2022-08-11T18:37:49;3.70;;;2.30;;
11305;SDS011;5708;50.660;6.778;2022-08-11T18:40:34;6.32;;;2.65;;
11305;SDS011;5708;50.660;6.778;2022-08-11T18:43:18;6.78;;;2.45;;
11305;SDS011;5708;50.660;6.778;2022-08-11T18:46:04;4.97;;;2.30;;
11305;SDS011;5708;50.660;6.778;2022-08-11T18:48:51;5.30;;;2.85;;
11305;SDS011;5708;50.660;6.778;2022-08-11T18:51:37;6.82;;;2.75;;
11305;SDS011;5708;50.660;6.778;2022-08-11T18:54:23;4.05;;;2.28;;
11305;SDS011;5708;50.660;6.778;2022-08-11T18:57:08;5.57;;;2.78;;
11305;SDS011;5708;50.660;6.778;2022-08-11T18:59:53;5.80;;;3.03;;
11305;SDS011;5708;50.660;6.778;2022-08-11T19:02:38;5.97;;;2.63;;
11305;SDS011;5708;50.660;6.778;2022-08-11T19:05:22;4.95;;;2.55;;
11305;SDS011;5708;50.660;6.778;2022-08-11T19:08:07;4.78;;;2.55;;
11305;SDS011;5708;50.660;6.778;2022-08-11T19:10:51;5.78;;;2.42;;
11305;SDS011;5708;50.660;6.778;2022-08-11T19:13:36;6.78;;;2.78;;
11305;SDS011;5708;50.660;6.778;2022-08-11T19:16:21;4.30;;;2.65;;
11305;SDS011;5708;50.660;6.778;2022-08-11T19:19:07;7.97;;;3.08;;
11305;SDS011;5708;50.660;6.778;2022-08-11T19:21:51;7.45;;;3.33;;